sensor_id;sensor_type;location;lat;lon;timestamp;P1;durP1;ratioP1;P2;durP2;ratioP2
84431;SDS011;74658;51.736;7.038;2024-03-08T00:00:10;34.10;;;16.70;;
84431;SDS011;74658;51.736;7.038;2024-03-08T00:05:10;36.60;;;17.20;;
84431;SDS011;74658;51.736;7.038;2024-03-08T00:10:13;34.00;;;16.70;;
84431;SDS011;74658;51.736;7.038;2024-03-08T00:15:12;38.10;;;17.20;;
84431;SDS011;74658;51.736;7.038;2024-03-08T00:20:12;36.20;;;17.60;;
84431;SDS011;74658;51.736;7.038;2024-03-08T00:25:13;35.60;;;17.00;;
84431;SDS011;74658;51.736;7.038;2024-03-08T00:30:14;38.70;;;17.30;;
84431;SDS011;74658;51.736;7.038;2024-03-08T00:35:14;35.70;;;17.90;;
84431;SDS011;74658;51.736;7.038;2024-03-08T00:40:15;38.30;;;18.40;;
84431;SDS011;74658;51.736;7.038;2024-03-08T00:45:15;36.30;;;17.70;;
84431;SDS011;74658;51.736;7.038;2024-03-08T00:50:16;39.30;;;18.70;;
84431;SDS011;74658;51.736;7.038;2024-03-08T00:55:17;38.00;;;18.20;;
84431;SDS011;74658;51.736;7.038;2024-03-08T01:00:18;37.20;;;17.80;;
84431;SDS011;74658;51.736;7.038;2024-03-08T01:05:18;39.70;;;19.20;;
84431;SDS011;74658;51.736;7.038;2024-03-08T01:10:18;37.20;;;18.20;;
84431;SDS011;74658;51.736;7.038;2024-03-08T01:15:19;39.10;;;18.50;;
84431;SDS011;74658;51.736;7.038;2024-03-08T01:20:19;41.60;;;18.80;;
84431;SDS011;74658;51.736;7.038;2024-03-08T01:25:20;39.70;;;19.40;;
84431;SDS011;74658;51.736;7.038;2024-03-08T01:30:21;40.50;;;17.70;;
84431;SDS011;74658;51.736;7.038;2024-03-08T01:35:22;41.40;;;18.30;;
84431;SDS011;74658;51.736;7.038;2024-03-08T01:40:22;42.90;;;18.80;;
84431;SDS011;74658;51.736;7.038;2024-03-08T01:45:23;41.50;;;18.90;;
84431;SDS011;74658;51.736;7.038;2024-03-08T01:50:23;41.80;;;18.10;;
84431;SDS011;74658;51.736;7.038;2024-03-08T01:55:24;41.50;;;19.40;;
84431;SDS011;74658;51.736;7.038;2024-03-08T02:00:24;42.00;;;18.30;;
84431;SDS011;74658;51.736;7.038;2024-03-08T02:05:25;41.50;;;19.30;;
84431;SDS011;74658;51.736;7.038;2024-03-08T02:10:26;41.10;;;18.90;;
84431;SDS011;74658;51.736;7.038;2024-03-08T02:15:27;40.90;;;20.10;;
84431;SDS011;74658;51.736;7.038;2024-03-08T02:20:28;39.50;;;17.50;;
84431;SDS011;74658;51.736;7.038;2024-03-08T02:25:28;39.30;;;17.90;;
84431;SDS011;74658;51.736;7.038;2024-03-08T02:30:28;40.70;;;19.10;;
84431;SDS011;74658;51.736;7.038;2024-03-08T02:35:29;43.00;;;19.40;;
84431;SDS011;74658;51.736;7.038;2024-03-08T02:40:29;40.80;;;19.00;;
84431;SDS011;74658;51.736;7.038;2024-03-08T02:45:30;43.60;;;19.10;;
84431;SDS011;74658;51.736;7.038;2024-03-08T02:50:31;42.00;;;19.40;;
84431;SDS011;74658;51.736;7.038;2024-03-08T02:55:31;42.30;;;19.10;;
84431;SDS011;74658;51.736;7.038;2024-03-08T03:00:32;42.60;;;19.80;;
84431;SDS011;74658;51.736;7.038;2024-03-08T03:05:33;44.10;;;19.70;;
84431;SDS011;74658;51.736;7.038;2024-03-08T03:10:33;43.10;;;18.40;;
84431;SDS011;74658;51.736;7.038;2024-03-08T03:15:34;42.00;;;19.10;;
84431;SDS011;74658;51.736;7.038;2024-03-08T03:20:34;41.10;;;19.20;;
84431;SDS011;74658;51.736;7.038;2024-03-08T03:25:35;42.40;;;19.10;;
84431;SDS011;74658;51.736;7.038;2024-03-08T03:30:36;44.10;;;18.60;;
84431;SDS011;74658;51.736;7.038;2024-03-08T03:35:36;42.70;;;19.40;;
84431;SDS011;74658;51.736;7.038;2024-03-08T03:40:37;40.40;;;17.80;;
84431;SDS011;74658;51.736;7.038;2024-03-08T03:45:39;41.90;;;19.40;;
84431;SDS011;74658;51.736;7.038;2024-03-08T03:50:38;46.80;;;20.10;;
84431;SDS011;74658;51.736;7.038;2024-03-08T03:55:39;45.80;;;19.50;;
84431;SDS011;74658;51.736;7.038;2024-03-08T04:00:39;45.70;;;19.80;;
84431;SDS011;74658;51.736;7.038;2024-03-08T04:05:40;47.50;;;19.90;;
84431;SDS011;74658;51.736;7.038;2024-03-08T04:10:41;44.10;;;19.40;;
84431;SDS011;74658;51.736;7.038;2024-03-08T04:15:41;44.20;;;19.60;;
84431;SDS011;74658;51.736;7.038;2024-03-08T04:20:42;42.90;;;18.50;;
84431;SDS011;74658;51.736;7.038;2024-03-08T04:25:43;48.00;;;20.80;;
84431;SDS011;74658;51.736;7.038;2024-03-08T04:30:43;49.20;;;20.00;;
84431;SDS011;74658;51.736;7.038;2024-03-08T04:35:44;48.40;;;19.80;;
84431;SDS011;74658;51.736;7.038;2024-03-08T04:40:44;49.00;;;19.80;;
84431;SDS011;74658;51.736;7.038;2024-03-08T04:45:45;43.20;;;20.00;;
84431;SDS011;74658;51.736;7.038;2024-03-08T04:50:46;42.40;;;18.70;;
84431;SDS011;74658;51.736;7.038;2024-03-08T04:55:46;51.50;;;22.40;;
84431;SDS011;74658;51.736;7.038;2024-03-08T05:00:47;49.00;;;20.40;;
84431;SDS011;74658;51.736;7.038;2024-03-08T05:05:48;47.00;;;20.70;;
84431;SDS011;74658;51.736;7.038;2024-03-08T05:10:48;45.80;;;20.10;;
84431;SDS011;74658;51.736;7.038;2024-03-08T05:15:49;45.30;;;20.00;;
84431;SDS011;74658;51.736;7.038;2024-03-08T05:20:49;48.20;;;21.10;;
84431;SDS011;74658;51.736;7.038;2024-03-08T05:25:50;43.50;;;19.30;;
84431;SDS011;74658;51.736;7.038;2024-03-08T05:30:50;46.60;;;20.70;;
84431;SDS011;74658;51.736;7.038;2024-03-08T05:35:51;50.80;;;21.10;;
84431;SDS011;74658;51.736;7.038;2024-03-08T05:40:52;45.80;;;20.40;;
84431;SDS011;74658;51.736;7.038;2024-03-08T05:45:52;47.10;;;20.30;;
84431;SDS011;74658;51.736;7.038;2024-03-08T05:50:53;49.60;;;21.90;;
84431;SDS011;74658;51.736;7.038;2024-03-08T05:55:54;49.10;;;21.70;;
84431;SDS011;74658;51.736;7.038;2024-03-08T06:00:54;48.10;;;20.50;;
84431;SDS011;74658;51.736;7.038;2024-03-08T06:05:58;51.90;;;23.00;;
84431;SDS011;74658;51.736;7.038;2024-03-08T06:10:57;50.80;;;21.30;;
84431;SDS011;74658;51.736;7.038;2024-03-08T06:15:57;55.00;;;21.90;;
84431;SDS011;74658;51.736;7.038;2024-03-08T06:20:58;50.00;;;22.00;;
84431;SDS011;74658;51.736;7.038;2024-03-08T06:25:59;52.00;;;21.50;;
84431;SDS011;74658;51.736;7.038;2024-03-08T06:30:59;53.50;;;22.80;;
84431;SDS011;74658;51.736;7.038;2024-03-08T06:35:59;46.50;;;20.80;;
84431;SDS011;74658;51.736;7.038;2024-03-08T06:41:00;52.40;;;21.50;;
84431;SDS011;74658;51.736;7.038;2024-03-08T06:46:01;48.90;;;21.00;;
84431;SDS011;74658;51.736;7.038;2024-03-08T06:51:01;48.20;;;21.20;;
84431;SDS011;74658;51.736;7.038;2024-03-08T06:56:02;52.90;;;22.20;;
84431;SDS011;74658;51.736;7.038;2024-03-08T07:01:03;50.60;;;21.40;;
84431;SDS011;74658;51.736;7.038;2024-03-08T07:06:03;47.70;;;21.70;;
84431;SDS011;74658;51.736;7.038;2024-03-08T07:11:04;48.70;;;21.60;;
84431;SDS011;74658;51.736;7.038;2024-03-08T07:16:04;44.20;;;21.50;;
84431;SDS011;74658;51.736;7.038;2024-03-08T07:21:05;44.80;;;20.40;;
84431;SDS011;74658;51.736;7.038;2024-03-08T07:26:06;43.60;;;20.00;;
84431;SDS011;74658;51.736;7.038;2024-03-08T07:31:06;48.60;;;22.80;;
84431;SDS011;74658;51.736;7.038;2024-03-08T07:36:07;45.00;;;20.90;;
84431;SDS011;74658;51.736;7.038;2024-03-08T07:41:07;43.90;;;20.70;;
84431;SDS011;74658;51.736;7.038;2024-03-08T07:46:09;43.70;;;21.00;;
84431;SDS011;74658;51.736;7.038;2024-03-08T07:51:09;46.60;;;21.20;;
84431;SDS011;74658;51.736;7.038;2024-03-08T07:56:10;46.90;;;21.20;;
84431;SDS011;74658;51.736;7.038;2024-03-08T08:01:15;45.70;;;21.80;;
84431;SDS011;74658;51.736;7.038;2024-03-08T08:06:11;43.00;;;20.30;;
84431;SDS011;74658;51.736;7.038;2024-03-08T08:11:11;39.00;;;19.40;;
84431;SDS011;74658;51.736;7.038;2024-03-08T08:16:12;43.30;;;21.50;;
84431;SDS011;74658;51.736;7.038;2024-03-08T08:21:12;39.40;;;20.00;;
84431;SDS011;74658;51.736;7.038;2024-03-08T08:26:13;41.70;;;20.60;;
84431;SDS011;74658;51.736;7.038;2024-03-08T08:31:14;38.40;;;20.20;;
84431;SDS011;74658;51.736;7.038;2024-03-08T08:36:14;39.80;;;20.70;;
84431;SDS011;74658;51.736;7.038;2024-03-08T08:41:15;38.70;;;20.60;;
84431;SDS011;74658;51.736;7.038;2024-03-08T08:46:16;39.20;;;21.30;;
84431;SDS011;74658;51.736;7.038;2024-03-08T08:51:16;40.00;;;20.50;;
84431;SDS011;74658;51.736;7.038;2024-03-08T08:56:17;39.30;;;19.70;;
84431;SDS011;74658;51.736;7.038;2024-03-08T09:01:17;35.90;;;19.90;;
84431;SDS011;74658;51.736;7.038;2024-03-08T09:06:18;38.70;;;20.90;;
84431;SDS011;74658;51.736;7.038;2024-03-08T09:11:19;38.40;;;20.00;;
84431;SDS011;74658;51.736;7.038;2024-03-08T09:16:19;38.70;;;22.00;;
84431;SDS011;74658;51.736;7.038;2024-03-08T09:21:23;37.60;;;20.80;;
84431;SDS011;74658;51.736;7.038;2024-03-08T09:26:21;36.90;;;20.20;;
84431;SDS011;74658;51.736;7.038;2024-03-08T09:31:22;38.60;;;21.80;;
84431;SDS011;74658;51.736;7.038;2024-03-08T09:36:23;35.60;;;18.70;;
84431;SDS011;74658;51.736;7.038;2024-03-08T09:41:23;37.30;;;19.80;;
84431;SDS011;74658;51.736;7.038;2024-03-08T09:46:24;36.60;;;20.20;;
84431;SDS011;74658;51.736;7.038;2024-03-08T09:51:27;35.50;;;18.40;;
84431;SDS011;74658;51.736;7.038;2024-03-08T09:56:25;33.70;;;18.00;;
84431;SDS011;74658;51.736;7.038;2024-03-08T10:01:25;34.10;;;17.30;;
84431;SDS011;74658;51.736;7.038;2024-03-08T10:06:26;32.30;;;17.40;;
84431;SDS011;74658;51.736;7.038;2024-03-08T10:11:27;33.30;;;17.90;;
84431;SDS011;74658;51.736;7.038;2024-03-08T10:16:27;36.00;;;19.40;;
84431;SDS011;74658;51.736;7.038;2024-03-08T10:21:28;32.50;;;17.80;;
84431;SDS011;74658;51.736;7.038;2024-03-08T10:26:29;32.60;;;18.70;;
84431;SDS011;74658;51.736;7.038;2024-03-08T10:31:29;32.10;;;17.00;;
84431;SDS011;74658;51.736;7.038;2024-03-08T10:36:33;33.40;;;18.80;;
84431;SDS011;74658;51.736;7.038;2024-03-08T10:41:31;30.50;;;16.70;;
84431;SDS011;74658;51.736;7.038;2024-03-08T10:46:38;28.00;;;13.60;;
84431;SDS011;74658;51.736;7.038;2024-03-08T10:51:32;32.70;;;17.80;;
84431;SDS011;74658;51.736;7.038;2024-03-08T10:56:33;30.90;;;17.30;;
84431;SDS011;74658;51.736;7.038;2024-03-08T11:01:34;30.70;;;16.10;;
84431;SDS011;74658;51.736;7.038;2024-03-08T11:06:41;31.60;;;17.30;;
84431;SDS011;74658;51.736;7.038;2024-03-08T11:11:35;32.80;;;17.00;;
84431;SDS011;74658;51.736;7.038;2024-03-08T11:16:37;30.60;;;16.50;;
84431;SDS011;74658;51.736;7.038;2024-03-08T11:21:36;34.00;;;18.30;;
84431;SDS011;74658;51.736;7.038;2024-03-08T11:26:37;29.00;;;15.90;;
84431;SDS011;74658;51.736;7.038;2024-03-08T11:31:37;30.60;;;17.50;;
84431;SDS011;74658;51.736;7.038;2024-03-08T11:36:38;33.50;;;18.60;;
84431;SDS011;74658;51.736;7.038;2024-03-08T11:41:39;33.70;;;17.80;;
84431;SDS011;74658;51.736;7.038;2024-03-08T11:46:39;30.60;;;16.70;;
84431;SDS011;74658;51.736;7.038;2024-03-08T11:51:40;31.80;;;18.50;;
84431;SDS011;74658;51.736;7.038;2024-03-08T11:56:40;34.00;;;18.60;;
84431;SDS011;74658;51.736;7.038;2024-03-08T12:01:41;33.20;;;17.60;;
84431;SDS011;74658;51.736;7.038;2024-03-08T12:06:42;29.50;;;16.20;;
84431;SDS011;74658;51.736;7.038;2024-03-08T12:11:42;29.60;;;16.40;;
84431;SDS011;74658;51.736;7.038;2024-03-08T12:16:43;28.60;;;15.90;;
84431;SDS011;74658;51.736;7.038;2024-03-08T12:21:43;29.30;;;17.10;;
84431;SDS011;74658;51.736;7.038;2024-03-08T12:26:45;25.30;;;15.10;;
84431;SDS011;74658;51.736;7.038;2024-03-08T12:31:45;29.70;;;17.50;;
84431;SDS011;74658;51.736;7.038;2024-03-08T12:36:46;30.10;;;18.00;;
84431;SDS011;74658;51.736;7.038;2024-03-08T12:41:46;29.10;;;17.70;;
84431;SDS011;74658;51.736;7.038;2024-03-08T12:46:46;28.40;;;16.30;;
84431;SDS011;74658;51.736;7.038;2024-03-08T12:51:47;29.10;;;17.30;;
84431;SDS011;74658;51.736;7.038;2024-03-08T12:56:48;26.40;;;16.10;;
84431;SDS011;74658;51.736;7.038;2024-03-08T13:01:48;29.00;;;17.40;;
84431;SDS011;74658;51.736;7.038;2024-03-08T13:06:49;29.40;;;17.40;;
84431;SDS011;74658;51.736;7.038;2024-03-08T13:11:49;25.80;;;16.90;;
84431;SDS011;74658;51.736;7.038;2024-03-08T13:16:50;26.30;;;16.00;;
84431;SDS011;74658;51.736;7.038;2024-03-08T13:21:50;29.60;;;16.80;;
84431;SDS011;74658;51.736;7.038;2024-03-08T13:26:51;28.50;;;17.00;;
84431;SDS011;74658;51.736;7.038;2024-03-08T13:31:52;27.00;;;17.00;;
84431;SDS011;74658;51.736;7.038;2024-03-08T13:36:52;24.10;;;15.60;;
84431;SDS011;74658;51.736;7.038;2024-03-08T13:41:53;27.10;;;16.60;;
84431;SDS011;74658;51.736;7.038;2024-03-08T13:46:53;27.50;;;15.00;;
84431;SDS011;74658;51.736;7.038;2024-03-08T13:51:54;27.20;;;16.00;;
84431;SDS011;74658;51.736;7.038;2024-03-08T13:56:55;23.60;;;14.50;;
84431;SDS011;74658;51.736;7.038;2024-03-08T14:01:55;26.20;;;15.20;;
84431;SDS011;74658;51.736;7.038;2024-03-08T14:06:56;27.40;;;15.50;;
84431;SDS011;74658;51.736;7.038;2024-03-08T14:11:57;24.60;;;14.00;;
84431;SDS011;74658;51.736;7.038;2024-03-08T14:16:57;26.80;;;15.80;;
84431;SDS011;74658;51.736;7.038;2024-03-08T14:21:58;26.70;;;15.40;;
84431;SDS011;74658;51.736;7.038;2024-03-08T14:26:58;26.00;;;14.10;;
84431;SDS011;74658;51.736;7.038;2024-03-08T14:31:59;28.00;;;15.40;;
84431;SDS011;74658;51.736;7.038;2024-03-08T14:37:00;27.20;;;14.80;;
84431;SDS011;74658;51.736;7.038;2024-03-08T14:42:00;30.00;;;15.80;;
84431;SDS011;74658;51.736;7.038;2024-03-08T14:47:02;32.50;;;15.80;;
84431;SDS011;74658;51.736;7.038;2024-03-08T14:52:03;28.80;;;16.40;;
84431;SDS011;74658;51.736;7.038;2024-03-08T14:57:04;31.20;;;15.90;;
84431;SDS011;74658;51.736;7.038;2024-03-08T15:02:04;31.10;;;16.40;;
84431;SDS011;74658;51.736;7.038;2024-03-08T15:07:05;27.40;;;14.70;;
84431;SDS011;74658;51.736;7.038;2024-03-08T15:12:06;32.10;;;16.90;;
84431;SDS011;74658;51.736;7.038;2024-03-08T15:17:06;31.60;;;17.50;;
84431;SDS011;74658;51.736;7.038;2024-03-08T15:22:06;32.80;;;16.80;;
84431;SDS011;74658;51.736;7.038;2024-03-08T15:27:07;29.80;;;15.40;;
84431;SDS011;74658;51.736;7.038;2024-03-08T15:32:07;30.70;;;16.20;;
84431;SDS011;74658;51.736;7.038;2024-03-08T15:37:08;30.30;;;15.30;;
84431;SDS011;74658;51.736;7.038;2024-03-08T15:42:09;30.30;;;15.50;;
84431;SDS011;74658;51.736;7.038;2024-03-08T15:47:09;29.00;;;14.70;;
84431;SDS011;74658;51.736;7.038;2024-03-08T15:52:10;36.20;;;19.30;;
84431;SDS011;74658;51.736;7.038;2024-03-08T15:57:11;34.90;;;17.90;;
84431;SDS011;74658;51.736;7.038;2024-03-08T16:02:11;31.90;;;17.10;;
84431;SDS011;74658;51.736;7.038;2024-03-08T16:07:12;34.40;;;19.30;;
84431;SDS011;74658;51.736;7.038;2024-03-08T16:12:12;36.40;;;19.40;;
84431;SDS011;74658;51.736;7.038;2024-03-08T16:17:13;34.30;;;18.50;;
84431;SDS011;74658;51.736;7.038;2024-03-08T16:22:14;34.20;;;17.30;;
84431;SDS011;74658;51.736;7.038;2024-03-08T16:27:14;35.40;;;18.10;;
84431;SDS011;74658;51.736;7.038;2024-03-08T16:32:15;35.10;;;17.70;;
84431;SDS011;74658;51.736;7.038;2024-03-08T16:37:15;34.50;;;18.10;;
84431;SDS011;74658;51.736;7.038;2024-03-08T16:42:16;36.30;;;17.80;;
84431;SDS011;74658;51.736;7.038;2024-03-08T16:47:17;33.90;;;16.70;;
84431;SDS011;74658;51.736;7.038;2024-03-08T16:52:17;34.40;;;17.40;;
84431;SDS011;74658;51.736;7.038;2024-03-08T16:57:18;33.30;;;17.00;;
84431;SDS011;74658;51.736;7.038;2024-03-08T17:02:18;34.30;;;16.80;;
84431;SDS011;74658;51.736;7.038;2024-03-08T17:07:19;32.80;;;16.40;;
84431;SDS011;74658;51.736;7.038;2024-03-08T17:12:20;32.00;;;16.00;;
84431;SDS011;74658;51.736;7.038;2024-03-08T17:17:20;33.20;;;17.10;;
84431;SDS011;74658;51.736;7.038;2024-03-08T17:22:21;35.80;;;16.90;;
84431;SDS011;74658;51.736;7.038;2024-03-08T17:27:21;34.30;;;16.60;;
84431;SDS011;74658;51.736;7.038;2024-03-08T17:32:22;32.40;;;16.60;;
84431;SDS011;74658;51.736;7.038;2024-03-08T17:37:23;35.40;;;16.70;;
84431;SDS011;74658;51.736;7.038;2024-03-08T17:42:23;31.50;;;15.50;;
84431;SDS011;74658;51.736;7.038;2024-03-08T17:47:24;34.70;;;16.90;;
84431;SDS011;74658;51.736;7.038;2024-03-08T17:52:24;34.30;;;16.60;;
84431;SDS011;74658;51.736;7.038;2024-03-08T17:57:25;37.10;;;17.80;;
84431;SDS011;74658;51.736;7.038;2024-03-08T18:02:26;39.00;;;18.40;;
84431;SDS011;74658;51.736;7.038;2024-03-08T18:07:26;34.50;;;17.70;;
84431;SDS011;74658;51.736;7.038;2024-03-08T18:12:27;33.80;;;17.00;;
84431;SDS011;74658;51.736;7.038;2024-03-08T18:17:27;33.60;;;16.20;;
84431;SDS011;74658;51.736;7.038;2024-03-08T18:22:28;37.80;;;17.10;;
84431;SDS011;74658;51.736;7.038;2024-03-08T18:27:29;38.60;;;17.80;;
84431;SDS011;74658;51.736;7.038;2024-03-08T18:32:29;35.70;;;15.80;;
84431;SDS011;74658;51.736;7.038;2024-03-08T18:37:30;36.80;;;17.70;;
84431;SDS011;74658;51.736;7.038;2024-03-08T18:42:30;35.90;;;16.30;;
84431;SDS011;74658;51.736;7.038;2024-03-08T18:47:31;36.60;;;17.50;;
84431;SDS011;74658;51.736;7.038;2024-03-08T18:52:32;37.80;;;17.90;;
84431;SDS011;74658;51.736;7.038;2024-03-08T18:57:32;34.30;;;15.60;;
84431;SDS011;74658;51.736;7.038;2024-03-08T19:02:33;38.30;;;18.10;;
84431;SDS011;74658;51.736;7.038;2024-03-08T19:07:33;39.60;;;17.80;;
84431;SDS011;74658;51.736;7.038;2024-03-08T19:12:34;41.30;;;19.70;;
84431;SDS011;74658;51.736;7.038;2024-03-08T19:17:35;37.40;;;17.90;;
84431;SDS011;74658;51.736;7.038;2024-03-08T19:22:36;38.90;;;17.80;;
84431;SDS011;74658;51.736;7.038;2024-03-08T19:27:36;40.70;;;18.70;;
84431;SDS011;74658;51.736;7.038;2024-03-08T19:32:37;39.70;;;17.90;;
84431;SDS011;74658;51.736;7.038;2024-03-08T19:37:37;37.40;;;17.40;;
84431;SDS011;74658;51.736;7.038;2024-03-08T19:42:38;41.70;;;19.30;;
84431;SDS011;74658;51.736;7.038;2024-03-08T19:47:38;39.60;;;18.50;;
84431;SDS011;74658;51.736;7.038;2024-03-08T19:52:39;42.00;;;18.70;;
84431;SDS011;74658;51.736;7.038;2024-03-08T19:57:40;38.60;;;18.10;;
84431;SDS011;74658;51.736;7.038;2024-03-08T20:02:41;42.20;;;19.20;;
84431;SDS011;74658;51.736;7.038;2024-03-08T20:07:41;41.50;;;19.60;;
84431;SDS011;74658;51.736;7.038;2024-03-08T20:12:42;41.60;;;20.20;;
84431;SDS011;74658;51.736;7.038;2024-03-08T20:17:43;40.90;;;18.60;;
84431;SDS011;74658;51.736;7.038;2024-03-08T20:22:46;38.30;;;18.60;;
84431;SDS011;74658;51.736;7.038;2024-03-08T20:27:44;41.20;;;18.00;;
84431;SDS011;74658;51.736;7.038;2024-03-08T20:32:45;41.30;;;18.80;;
84431;SDS011;74658;51.736;7.038;2024-03-08T20:37:46;44.40;;;20.00;;
84431;SDS011;74658;51.736;7.038;2024-03-08T20:42:46;47.00;;;21.30;;
84431;SDS011;74658;51.736;7.038;2024-03-08T20:47:47;42.80;;;18.90;;
84431;SDS011;74658;51.736;7.038;2024-03-08T20:52:47;43.50;;;19.50;;
84431;SDS011;74658;51.736;7.038;2024-03-08T20:57:48;43.50;;;19.10;;
84431;SDS011;74658;51.736;7.038;2024-03-08T21:02:48;44.60;;;19.10;;
84431;SDS011;74658;51.736;7.038;2024-03-08T21:07:50;48.20;;;19.40;;
84431;SDS011;74658;51.736;7.038;2024-03-08T21:12:50;45.10;;;19.20;;
84431;SDS011;74658;51.736;7.038;2024-03-08T21:17:51;48.10;;;19.80;;
84431;SDS011;74658;51.736;7.038;2024-03-08T21:22:51;48.60;;;20.80;;
84431;SDS011;74658;51.736;7.038;2024-03-08T21:27:52;46.50;;;20.60;;
84431;SDS011;74658;51.736;7.038;2024-03-08T21:32:52;48.90;;;20.90;;
84431;SDS011;74658;51.736;7.038;2024-03-08T21:37:53;47.50;;;20.50;;
84431;SDS011;74658;51.736;7.038;2024-03-08T21:42:54;52.10;;;22.10;;
84431;SDS011;74658;51.736;7.038;2024-03-08T21:47:54;48.00;;;20.40;;
84431;SDS011;74658;51.736;7.038;2024-03-08T21:52:55;49.50;;;21.60;;
84431;SDS011;74658;51.736;7.038;2024-03-08T21:57:55;51.10;;;22.00;;
84431;SDS011;74658;51.736;7.038;2024-03-08T22:02:56;49.50;;;21.40;;
84431;SDS011;74658;51.736;7.038;2024-03-08T22:07:57;50.30;;;20.60;;
84431;SDS011;74658;51.736;7.038;2024-03-08T22:12:57;50.80;;;22.60;;
84431;SDS011;74658;51.736;7.038;2024-03-08T22:17:58;50.00;;;21.30;;
84431;SDS011;74658;51.736;7.038;2024-03-08T22:22:58;51.10;;;22.10;;
84431;SDS011;74658;51.736;7.038;2024-03-08T22:27:59;51.90;;;23.00;;
84431;SDS011;74658;51.736;7.038;2024-03-08T22:33:00;50.30;;;21.40;;
84431;SDS011;74658;51.736;7.038;2024-03-08T22:38:00;51.40;;;21.90;;
84431;SDS011;74658;51.736;7.038;2024-03-08T22:43:01;54.20;;;21.80;;
84431;SDS011;74658;51.736;7.038;2024-03-08T22:48:02;53.00;;;21.50;;
84431;SDS011;74658;51.736;7.038;2024-03-08T22:53:02;53.60;;;22.50;;
84431;SDS011;74658;51.736;7.038;2024-03-08T22:58:03;53.00;;;21.90;;
84431;SDS011;74658;51.736;7.038;2024-03-08T23:03:04;52.40;;;23.00;;
84431;SDS011;74658;51.736;7.038;2024-03-08T23:08:04;55.30;;;22.60;;
84431;SDS011;74658;51.736;7.038;2024-03-08T23:13:05;51.80;;;22.80;;
84431;SDS011;74658;51.736;7.038;2024-03-08T23:18:05;50.60;;;20.80;;
84431;SDS011;74658;51.736;7.038;2024-03-08T23:23:06;53.70;;;22.30;;
84431;SDS011;74658;51.736;7.038;2024-03-08T23:28:07;53.60;;;22.90;;
84431;SDS011;74658;51.736;7.038;2024-03-08T23:33:07;52.60;;;21.20;;
84431;SDS011;74658;51.736;7.038;2024-03-08T23:38:08;55.90;;;23.60;;
84431;SDS011;74658;51.736;7.038;2024-03-08T23:43:12;57.20;;;23.20;;
84431;SDS011;74658;51.736;7.038;2024-03-08T23:48:11;51.80;;;22.00;;
84431;SDS011;74658;51.736;7.038;2024-03-08T23:53:11;59.10;;;23.20;;
84431;SDS011;74658;51.736;7.038;2024-03-08T23:58:12;55.70;;;24.80;;
